Aviation Digital Data Service (ADDS)

Output produced by TAFs form (1105 UTC 24 May 2015)
found at http://www.aviationweather.gov/adds/tafs/
 
KABE 240533Z 2406/2506 VRB02KT P6SM SKC 
     FM241500 25010KT P6SM FEW250 
     FM250000 20004KT P6SM BKN250